aviador You're here:

GCTS Decoded Metar

TENERIFE in SPAIN
Report Time2017-08-18 04:30:00
UTC Time2017-08-18 04:52:59
Flight Rules vfr VFR
Wind360° at 04 kt
W.Decomp.*RWY 08: 1.1 kt HW 3.8 kt LCW
Visibility9999 m
Phenomena:N/A
Clouds:N/A
Expected CloudBase > 2,800 ft AGL from Temp-Dew spread
CeilingNone
Temp24°C (ISA +9)
Dew Point17°C (65% RH)
QNH1015 hPa
Density Alt1,526 ft
Elevation236 ft
Report Wrong Elevation
Raw Report
GCTS 180430Z 36004KT 310V070 CAVOK 24/17 Q1015 NOSIG=

Extra information for GCTS:More info

Metar Taf Metar & Taf Last 4 Metars F.Rules Stats Wind Profile Meteogram Temp Stats Airport Information Weather charts Add Link Nearby VenuesMetar ALERT Operation Metar Decoded Social comments